createdAt,value
2019-02-27T00:00:29.849Z,59.70
2019-02-27T00:02:59.175Z,59.70
2019-02-27T00:05:28.574Z,59.90
2019-02-27T00:07:57.805Z,60.00
2019-02-27T00:10:27.059Z,60.00
2019-02-27T00:12:56.333Z,60.00
2019-02-27T00:15:25.579Z,60.00
2019-02-27T00:17:54.736Z,60.40
2019-02-27T00:20:23.987Z,60.20
2019-02-27T00:22:53.211Z,60.00
2019-02-27T00:25:22.483Z,59.80
2019-02-27T00:27:53.459Z,59.90
2019-02-27T00:30:22.719Z,59.90
2019-02-27T00:32:51.941Z,60.00
2019-02-27T00:35:21.248Z,60.40
2019-02-27T00:37:52.145Z,61.50
2019-02-27T00:40:21.526Z,62.00
2019-02-27T00:42:54.115Z,62.80
2019-02-27T00:45:21.658Z,61.90
2019-02-27T00:47:52.823Z,61.80
2019-02-27T00:50:21.872Z,61.80
2019-02-27T00:52:51.718Z,62.00
2019-02-27T00:55:21.146Z,62.50
2019-02-27T00:57:51.831Z,63.10
2019-02-27T01:00:21.467Z,63.10
2019-02-27T01:02:52.908Z,62.90
2019-02-27T01:05:21.633Z,62.80
2019-02-27T01:07:53.802Z,63.30
2019-02-27T01:10:21.976Z,62.70
2019-02-27T01:12:51.716Z,62.50
2019-02-27T01:15:20.986Z,62.70
2019-02-27T01:17:50.216Z,62.80
2019-02-27T01:20:19.445Z,62.80
2019-02-27T01:22:48.712Z,63.20
2019-02-27T01:25:18.022Z,63.20
2019-02-27T01:27:47.383Z,62.70
2019-02-27T01:30:16.766Z,62.40
2019-02-27T01:32:45.946Z,62.20
2019-02-27T01:35:18.116Z,62.20
2019-02-27T01:37:46.063Z,62.00
2019-02-27T01:40:17.906Z,62.10
2019-02-27T01:42:46.162Z,62.30
2019-02-27T01:45:20.547Z,62.30
2019-02-27T01:47:47.339Z,62.30
2019-02-27T01:50:44.767Z,62.30
2019-02-27T01:53:14.034Z,61.80
2019-02-27T01:55:43.298Z,61.70
2019-02-27T01:58:12.483Z,61.50
2019-02-27T02:00:41.742Z,61.60
2019-02-27T02:03:13.402Z,61.70
2019-02-27T02:05:42.163Z,62.00
2019-02-27T02:08:13.920Z,62.00
2019-02-27T02:10:42.380Z,62.20
2019-02-27T02:13:28.380Z,62.30
2019-02-27T02:16:37.835Z,62.30
2019-02-27T02:20:00.401Z,62.40
2019-02-27T02:23:16.607Z,63.20
2019-02-27T02:26:18.839Z,62.30
2019-02-27T02:29:32.280Z,62.00
2019-02-27T02:32:08.536Z,61.60
2019-02-27T02:35:19.380Z,61.10
2019-02-27T02:38:23.459Z,60.60
2019-02-27T02:41:31.399Z,59.90
2019-02-27T02:44:41.387Z,59.20
2019-02-27T02:48:00.899Z,58.70
2019-02-27T02:51:10.194Z,58.70
2019-02-27T02:54:11.744Z,58.50
2019-02-27T02:57:00.236Z,58.10
2019-02-27T02:59:59.490Z,58.10
2019-02-27T03:02:38.128Z,57.80
2019-02-27T03:05:40.859Z,57.10
2019-02-27T03:08:41.741Z,56.80
2019-02-27T03:11:41.757Z,56.30
2019-02-27T03:14:39.955Z,56.30
2019-02-27T03:17:46.087Z,55.50
2019-02-27T03:20:54.469Z,55.70
2019-02-27T03:23:54.723Z,55.80
2019-02-27T03:26:53.263Z,55.80
2019-02-27T03:29:39.937Z,55.70
2019-02-27T03:32:26.832Z,55.40
2019-02-27T03:35:29.233Z,55.50
2019-02-27T03:38:23.827Z,56.00
2019-02-27T03:41:22.797Z,56.90
2019-02-27T03:44:25.047Z,56.70
2019-02-27T03:47:25.636Z,56.80
2019-02-27T03:50:54.388Z,57.10
2019-02-27T03:53:43.160Z,57.40
2019-02-27T03:56:53.645Z,57.80
2019-02-27T04:00:01.156Z,58.00
2019-02-27T04:02:52.499Z,58.00
2019-02-27T04:06:20.004Z,58.00
2019-02-27T04:09:01.766Z,57.90
2019-02-27T04:11:31.106Z,58.20
2019-02-27T04:14:04.738Z,58.50
2019-02-27T04:16:32.062Z,59.00
2019-02-27T04:19:04.625Z,59.30
2019-02-27T04:21:32.269Z,59.30
2019-02-27T04:24:01.445Z,59.40
2019-02-27T04:26:30.786Z,59.40
2019-02-27T04:29:04.096Z,59.60
2019-02-27T04:31:31.011Z,59.80
2019-02-27T04:34:01.131Z,59.60
2019-02-27T04:36:30.716Z,60.60
2019-02-27T04:39:02.196Z,59.90
2019-02-27T04:41:30.989Z,60.40
2019-02-27T04:44:00.137Z,61.30
2019-02-27T04:46:29.467Z,63.00
2019-02-27T04:48:58.708Z,63.80
2019-02-27T04:51:27.967Z,64.30
2019-02-27T04:53:57.116Z,64.30
2019-02-27T04:56:26.296Z,64.10
2019-02-27T04:58:55.504Z,64.60
2019-02-27T05:01:24.802Z,65.20
2019-02-27T05:03:53.996Z,65.70
2019-02-27T05:06:23.249Z,66.60
2019-02-27T05:08:52.481Z,66.80
2019-02-27T05:11:21.810Z,66.70
2019-02-27T05:13:54.002Z,65.90
2019-02-27T05:16:22.024Z,66.30
2019-02-27T05:18:51.297Z,66.90
2019-02-27T05:21:20.518Z,67.00
2019-02-27T05:23:49.824Z,65.40
2019-02-27T05:26:19.077Z,64.70
2019-02-27T05:28:48.299Z,64.70
2019-02-27T05:31:19.024Z,65.60
2019-02-27T05:33:48.392Z,62.70
2019-02-27T05:36:17.695Z,62.80
2019-02-27T05:38:47.035Z,62.10
2019-02-27T05:41:16.332Z,61.20
2019-02-27T05:43:48.562Z,61.40
2019-02-27T05:46:16.455Z,59.70
2019-02-27T05:48:45.635Z,59.70
2019-02-27T05:51:14.879Z,60.00
2019-02-27T05:53:44.206Z,60.60
2019-02-27T05:56:15.833Z,60.30
2019-02-27T05:58:44.342Z,60.10
2019-02-27T06:01:13.580Z,60.10
2019-02-27T06:03:42.940Z,60.90
2019-02-27T06:06:12.440Z,61.70
2019-02-27T06:08:41.776Z,62.20
2019-02-27T06:11:10.936Z,62.70
2019-02-27T06:13:40.111Z,62.80
2019-02-27T06:16:09.416Z,63.20
2019-02-27T06:18:38.740Z,63.90
2019-02-27T06:21:07.893Z,64.50
2019-02-27T06:23:37.879Z,64.70
2019-02-27T06:26:07.806Z,65.60
2019-02-27T06:28:37.135Z,65.40
2019-02-27T06:31:06.377Z,65.20
2019-02-27T06:33:35.576Z,65.30
2019-02-27T06:36:05.293Z,65.30
2019-02-27T06:38:35.764Z,65.00
2019-02-27T06:41:04.992Z,65.30
2019-02-27T06:43:34.266Z,66.50
2019-02-27T06:46:03.482Z,68.80
2019-02-27T06:48:32.737Z,68.70
2019-02-27T06:51:01.882Z,68.30
2019-02-27T06:53:31.133Z,67.70
2019-02-27T06:56:02.940Z,66.90
2019-02-27T06:58:31.330Z,68.00
2019-02-27T07:01:00.487Z,67.10
2019-02-27T07:03:32.816Z,66.70
2019-02-27T07:06:00.667Z,66.10
2019-02-27T07:08:29.896Z,65.70
2019-02-27T07:11:10.394Z,64.70
2019-02-27T07:13:30.141Z,64.90
2019-02-27T07:15:59.371Z,65.30
2019-02-27T07:18:28.552Z,66.00
2019-02-27T07:20:58.440Z,67.10
2019-02-27T07:23:28.502Z,67.10
2019-02-27T07:25:57.729Z,68.00
2019-02-27T07:28:26.899Z,66.30
2019-02-27T07:30:56.149Z,62.60
2019-02-27T07:33:25.291Z,61.90
2019-02-27T07:35:54.548Z,61.70
2019-02-27T07:38:25.520Z,61.40
2019-02-27T07:40:54.723Z,60.40
2019-02-27T07:43:23.967Z,60.60
2019-02-27T07:45:54.339Z,58.70
2019-02-27T07:48:23.751Z,59.30
2019-02-27T07:50:53.003Z,60.00
2019-02-27T07:53:22.161Z,61.10
2019-02-27T07:55:51.420Z,61.70
2019-02-27T07:58:20.652Z,61.30
2019-02-27T08:00:50.532Z,63.00
2019-02-27T08:03:20.360Z,65.30
2019-02-27T08:06:02.402Z,63.30
2019-02-27T08:08:31.769Z,63.50
2019-02-27T08:11:01.011Z,65.80
2019-02-27T08:13:30.340Z,66.30
2019-02-27T08:15:59.722Z,67.20
2019-02-27T08:18:30.420Z,67.80
2019-02-27T08:20:59.876Z,67.90
2019-02-27T08:23:30.068Z,68.20
2019-02-27T08:25:59.252Z,69.40
2019-02-27T08:28:28.563Z,67.40
2019-02-27T08:30:57.747Z,66.40
2019-02-27T08:33:26.890Z,66.00
2019-02-27T08:35:56.169Z,66.10
2019-02-27T08:38:25.466Z,64.50
2019-02-27T08:40:57.222Z,64.60
2019-02-27T08:43:25.717Z,65.00
2019-02-27T08:45:55.044Z,66.00
2019-02-27T08:48:24.293Z,69.10
2019-02-27T08:50:53.640Z,69.20
2019-02-27T08:53:25.964Z,68.00
2019-02-27T08:55:53.882Z,67.90
2019-02-27T08:58:23.031Z,66.90
2019-02-27T09:00:52.387Z,64.60
2019-02-27T09:03:21.556Z,59.70
2019-02-27T09:05:51.019Z,60.20
2019-02-27T09:08:21.808Z,59.10
2019-02-27T09:10:51.195Z,58.20
2019-02-27T09:13:20.504Z,59.40
2019-02-27T09:15:49.759Z,61.20
2019-02-27T09:18:19.068Z,63.10
2019-02-27T09:20:48.307Z,64.70
2019-02-27T09:23:19.208Z,64.40
2019-02-27T09:25:48.969Z,64.40
2019-02-27T09:28:19.463Z,64.00
2019-02-27T09:30:48.734Z,65.80
2019-02-27T09:33:20.029Z,66.00
2019-02-27T09:35:48.872Z,64.10
2019-02-27T09:38:18.056Z,61.00
2019-02-27T09:40:47.232Z,62.80
2019-02-27T09:43:16.493Z,61.60
2019-02-27T09:45:46.531Z,61.30
2019-02-27T09:48:16.388Z,59.30
2019-02-27T09:50:48.431Z,58.90
2019-02-27T09:53:16.958Z,59.70
2019-02-27T09:55:46.115Z,58.40
2019-02-27T09:58:15.292Z,58.20
2019-02-27T10:01:01.486Z,58.90
2019-02-27T10:03:30.238Z,60.20
2019-02-27T10:05:59.416Z,58.00
2019-02-27T10:08:28.668Z,59.80
2019-02-27T10:10:57.828Z,61.20
2019-02-27T10:13:27.091Z,63.50
2019-02-27T10:16:00.529Z,62.00
2019-02-27T10:18:27.307Z,61.90
2019-02-27T10:20:56.549Z,57.70
2019-02-27T10:23:30.416Z,56.80
2019-02-27T10:25:56.728Z,54.80
2019-02-27T10:28:25.993Z,54.40
2019-02-27T10:30:55.233Z,54.00
2019-02-27T10:33:25.832Z,52.20
2019-02-27T10:35:55.132Z,51.30
2019-02-27T10:38:26.115Z,51.00
2019-02-27T10:40:55.267Z,51.60
2019-02-27T10:43:24.538Z,50.90
2019-02-27T10:45:53.785Z,50.30
2019-02-27T10:48:23.111Z,49.80
2019-02-27T10:50:52.262Z,50.30
2019-02-27T10:53:21.527Z,51.30
2019-02-27T10:55:50.692Z,51.30
2019-02-27T10:58:20.027Z,50.60
2019-02-27T11:00:50.148Z,51.60
2019-02-27T11:03:19.423Z,51.70
2019-02-27T11:05:52.365Z,52.00
2019-02-27T11:08:19.560Z,51.90
2019-02-27T11:10:48.852Z,50.90
2019-02-27T11:13:18.079Z,51.00
2019-02-27T11:15:47.317Z,50.70
2019-02-27T11:18:16.615Z,50.90
2019-02-27T11:20:46.006Z,49.00
2019-02-27T11:23:15.307Z,49.40
2019-02-27T11:25:44.559Z,49.20
2019-02-27T11:28:13.803Z,49.80
2019-02-27T11:30:43.042Z,49.30
2019-02-27T11:33:24.835Z,48.90
2019-02-27T11:35:43.260Z,49.00
2019-02-27T11:38:12.420Z,49.50
2019-02-27T11:40:42.839Z,49.90
2019-02-27T11:43:12.439Z,48.40
2019-02-27T11:45:41.708Z,48.00
2019-02-27T11:48:10.942Z,48.30
2019-02-27T11:50:40.282Z,48.60
2019-02-27T11:53:09.439Z,47.60
2019-02-27T11:55:38.732Z,48.40
2019-02-27T11:58:07.974Z,47.60
2019-02-27T12:00:37.230Z,48.00
2019-02-27T12:03:08.575Z,47.50
2019-02-27T12:05:37.403Z,47.20
2019-02-27T12:08:06.710Z,47.50
2019-02-27T12:10:35.984Z,48.60
2019-02-27T12:13:05.720Z,47.00
2019-02-27T12:15:35.079Z,47.90
2019-02-27T12:18:04.316Z,47.00
2019-02-27T12:20:33.500Z,46.90
2019-02-27T12:23:02.655Z,47.70
2019-02-27T12:25:32.435Z,47.90
2019-02-27T12:28:03.764Z,46.20
2019-02-27T12:30:37.133Z,46.00
2019-02-27T12:33:03.984Z,46.80
2019-02-27T12:35:33.293Z,45.50
2019-02-27T12:38:06.882Z,46.20
2019-02-27T12:40:35.244Z,45.00
2019-02-27T12:43:04.527Z,45.00
2019-02-27T12:45:33.844Z,45.40
2019-02-27T12:48:03.192Z,42.30
2019-02-27T12:50:33.321Z,42.50
2019-02-27T12:53:02.575Z,43.60
2019-02-27T12:55:35.410Z,42.40
2019-02-27T12:58:02.702Z,41.20
2019-02-27T13:00:32.197Z,42.80
2019-02-27T13:03:01.532Z,41.40
2019-02-27T13:05:30.792Z,42.90
2019-02-27T13:08:00.051Z,42.90
2019-02-27T13:10:34.058Z,41.40
2019-02-27T13:13:00.728Z,42.00
2019-02-27T13:15:30.383Z,40.90
2019-02-27T13:17:59.686Z,41.10
2019-02-27T13:20:29.029Z,41.10
2019-02-27T13:22:58.373Z,41.30
2019-02-27T13:25:27.694Z,39.70
2019-02-27T13:27:56.943Z,40.80
2019-02-27T13:30:26.124Z,39.80
2019-02-27T13:32:55.392Z,39.80
2019-02-27T13:35:24.693Z,40.40
2019-02-27T13:37:53.943Z,39.80
2019-02-27T13:40:23.189Z,39.40
2019-02-27T13:42:53.398Z,38.90
2019-02-27T13:45:24.611Z,39.10
2019-02-27T13:47:53.945Z,39.20
2019-02-27T13:50:26.494Z,40.00
2019-02-27T13:52:54.688Z,39.70
2019-02-27T13:55:24.141Z,39.10
2019-02-27T13:57:53.469Z,38.00
2019-02-27T14:00:25.952Z,37.80
2019-02-27T14:02:55.553Z,38.20
2019-02-27T14:05:24.914Z,37.90
2019-02-27T14:07:57.173Z,39.20
2019-02-27T14:10:26.893Z,38.20
2019-02-27T14:12:56.194Z,38.70
2019-02-27T14:15:27.249Z,38.10
2019-02-27T14:17:56.661Z,36.90
2019-02-27T14:20:26.895Z,36.70
2019-02-27T14:22:56.684Z,36.80
2019-02-27T14:25:31.039Z,36.60
2019-02-27T14:27:57.585Z,36.50
2019-02-27T14:30:29.330Z,35.60
2019-02-27T14:32:58.576Z,36.60
2019-02-27T14:35:27.768Z,37.60
2019-02-27T14:37:57.028Z,38.60
2019-02-27T14:40:26.212Z,39.30
2019-02-27T14:42:55.443Z,39.80
2019-02-27T14:45:24.851Z,40.40
2019-02-27T14:47:54.091Z,38.80
2019-02-27T14:50:23.456Z,39.90
2019-02-27T14:52:52.676Z,41.00
2019-02-27T14:55:22.012Z,41.90
2019-02-27T14:57:51.547Z,42.60
2019-02-27T15:00:24.405Z,42.90
2019-02-27T15:02:55.574Z,44.10
2019-02-27T15:05:24.873Z,44.70
2019-02-27T15:07:54.873Z,45.70
2019-02-27T15:10:24.768Z,45.50
2019-02-27T15:12:55.397Z,46.00
2019-02-27T15:15:26.620Z,46.70
2019-02-27T15:17:55.970Z,46.40
2019-02-27T15:20:25.936Z,46.40
2019-02-27T15:22:55.115Z,46.60
2019-02-27T15:25:24.508Z,46.70
2019-02-27T15:27:58.302Z,47.70
2019-02-27T15:30:26.029Z,47.70
2019-02-27T15:32:55.267Z,47.60
2019-02-27T15:35:24.558Z,47.90
2019-02-27T15:37:53.807Z,47.90
2019-02-27T15:40:28.574Z,48.60
2019-02-27T15:42:56.076Z,47.80
2019-02-27T15:45:25.555Z,47.90
2019-02-27T15:47:54.709Z,48.40
2019-02-27T15:50:24.389Z,48.40
2019-02-27T15:52:53.711Z,48.50
2019-02-27T15:55:22.944Z,48.30
2019-02-27T15:57:53.728Z,48.50
2019-02-27T16:00:23.275Z,48.80
2019-02-27T16:02:52.569Z,49.10
2019-02-27T16:05:21.856Z,49.20
2019-02-27T16:07:51.184Z,49.40
2019-02-27T16:10:21.528Z,49.90
2019-02-27T16:12:51.400Z,49.90
2019-02-27T16:15:20.892Z,50.20
2019-02-27T16:17:50.334Z,50.30
2019-02-27T16:20:19.956Z,51.10
2019-02-27T16:22:49.233Z,50.60
2019-02-27T16:25:20.211Z,50.60
2019-02-27T16:27:49.748Z,50.90
2019-02-27T16:30:24.201Z,51.10
2019-02-27T16:32:53.390Z,51.20
2019-02-27T16:35:22.689Z,51.20
2019-02-27T16:37:56.482Z,51.30
2019-02-27T16:40:23.053Z,51.30
2019-02-27T16:42:52.462Z,51.30
2019-02-27T16:45:32.246Z,51.20
2019-02-27T16:47:58.585Z,51.20
2019-02-27T16:50:28.241Z,51.30
2019-02-27T16:52:57.748Z,51.30
2019-02-27T16:55:26.956Z,51.40
2019-02-27T16:57:57.436Z,51.90
2019-02-27T17:00:28.599Z,51.50
2019-02-27T17:02:57.942Z,51.40
2019-02-27T17:05:27.193Z,51.50
2019-02-27T17:08:00.198Z,51.60
2019-02-27T17:10:29.465Z,51.60
2019-02-27T17:12:58.960Z,51.80
2019-02-27T17:15:28.423Z,51.90
2019-02-27T17:17:57.595Z,52.30
2019-02-27T17:20:26.997Z,52.70
2019-02-27T17:22:56.262Z,53.00
2019-02-27T17:25:28.676Z,53.50
2019-02-27T17:27:56.472Z,54.00
2019-02-27T17:30:27.923Z,54.40
2019-02-27T17:32:57.158Z,54.70
2019-02-27T17:35:26.472Z,55.00
2019-02-27T17:37:55.993Z,55.10
2019-02-27T17:40:25.260Z,55.40
2019-02-27T17:42:54.522Z,55.60
2019-02-27T17:45:23.932Z,56.00
2019-02-27T17:47:53.405Z,56.30
2019-02-27T17:50:22.739Z,56.40
2019-02-27T17:52:51.938Z,56.50
2019-02-27T17:55:21.243Z,56.60
2019-02-27T17:57:50.561Z,56.80
2019-02-27T18:00:28.201Z,56.90
2019-02-27T18:02:56.771Z,58.00
2019-02-27T18:05:26.180Z,58.10
2019-02-27T18:07:55.496Z,58.10
2019-02-27T18:10:24.695Z,58.00
2019-02-27T18:12:53.942Z,58.20
2019-02-27T18:15:23.330Z,58.30
2019-02-27T18:17:52.699Z,58.40
2019-02-27T18:20:25.511Z,58.40
2019-02-27T18:22:52.852Z,58.80
2019-02-27T18:25:22.220Z,58.80
2019-02-27T18:27:51.461Z,59.10
2019-02-27T18:30:20.715Z,59.20
2019-02-27T18:32:49.963Z,59.30
2019-02-27T18:35:19.226Z,59.30
2019-02-27T18:37:53.267Z,59.20
2019-02-27T18:40:19.948Z,59.90
2019-02-27T18:42:49.171Z,59.80
2019-02-27T18:45:18.438Z,59.80
2019-02-27T18:47:47.745Z,59.70
2019-02-27T18:50:17.200Z,59.90
2019-02-27T18:52:46.428Z,60.00
2019-02-27T18:55:15.838Z,60.30
2019-02-27T18:57:47.205Z,60.40
2019-02-27T19:00:21.400Z,61.00
2019-02-27T19:02:52.240Z,61.00
2019-02-27T19:05:22.755Z,61.10
2019-02-27T19:07:54.862Z,61.00
2019-02-27T19:10:23.470Z,60.80
2019-02-27T19:12:52.910Z,61.10
2019-02-27T19:15:22.593Z,61.10
2019-02-27T19:17:52.539Z,61.50
2019-02-27T19:20:25.080Z,61.80
2019-02-27T19:22:54.707Z,61.90
2019-02-27T19:25:23.896Z,61.60
2019-02-27T19:27:53.061Z,62.00
2019-02-27T19:30:22.611Z,62.20
2019-02-27T19:32:51.871Z,62.30
2019-02-27T19:35:22.333Z,62.10
2019-02-27T19:37:52.361Z,62.10
2019-02-27T19:40:23.564Z,62.70
2019-02-27T19:43:02.737Z,62.60
2019-02-27T19:45:31.973Z,62.70
2019-02-27T19:48:01.224Z,62.70
2019-02-27T19:50:30.578Z,62.60
2019-02-27T19:53:03.402Z,62.90
2019-02-27T19:55:30.917Z,62.80
2019-02-27T19:58:00.183Z,62.90
2019-02-27T20:00:33.704Z,63.00
2019-02-27T20:03:01.506Z,64.20
2019-02-27T20:05:31.128Z,63.70
2019-02-27T20:08:02.348Z,63.40
2019-02-27T20:10:33.262Z,63.40
2019-02-27T20:13:02.323Z,63.70
2019-02-27T20:15:31.795Z,63.50
2019-02-27T20:18:01.019Z,64.40
2019-02-27T20:20:30.280Z,63.80
2019-02-27T20:22:59.533Z,64.10
2019-02-27T20:25:28.985Z,64.00
2019-02-27T20:27:58.885Z,63.90
2019-02-27T20:30:28.570Z,64.00
2019-02-27T20:32:59.811Z,64.10
2019-02-27T20:35:28.848Z,64.20
2019-02-27T20:37:58.114Z,64.40
2019-02-27T20:40:27.946Z,64.10
2019-02-27T20:42:57.395Z,64.00
2019-02-27T20:45:26.878Z,64.10
2019-02-27T20:48:00.000Z,63.50
2019-02-27T20:50:34.726Z,64.10
2019-02-27T20:53:01.654Z,64.40
2019-02-27T20:55:31.833Z,64.10
2019-02-27T20:58:01.252Z,64.20
2019-02-27T21:00:35.975Z,64.50
2019-02-27T21:03:02.627Z,64.40
2019-02-27T21:05:32.583Z,64.80
2019-02-27T21:08:02.576Z,64.80
2019-02-27T21:10:32.439Z,65.10
2019-02-27T21:13:01.605Z,64.90
2019-02-27T21:15:32.344Z,64.70
2019-02-27T21:18:02.523Z,64.70
2019-02-27T21:20:33.182Z,64.90
2019-02-27T21:23:02.724Z,65.10
2019-02-27T21:25:32.039Z,65.80
2019-02-27T21:28:01.201Z,65.60
2019-02-27T21:30:30.452Z,65.60
2019-02-27T21:32:59.748Z,65.80
2019-02-27T21:35:29.879Z,65.70
2019-02-27T21:37:59.259Z,66.00
2019-02-27T21:40:28.579Z,66.10
2019-02-27T21:42:57.748Z,65.90
2019-02-27T21:45:26.997Z,65.80
2019-02-27T21:47:56.260Z,65.70
2019-02-27T21:50:25.589Z,65.80
2019-02-27T21:52:55.783Z,65.90
2019-02-27T21:55:25.412Z,66.00
2019-02-27T21:57:58.106Z,66.20
2019-02-27T22:00:26.125Z,66.40
2019-02-27T22:02:55.527Z,66.60
2019-02-27T22:05:24.988Z,67.20
2019-02-27T22:07:54.259Z,66.90
2019-02-27T22:10:23.507Z,67.20
2019-02-27T22:12:52.731Z,67.60
2019-02-27T22:15:24.288Z,67.60
2019-02-27T22:17:53.523Z,67.90
2019-02-27T22:20:25.936Z,68.10
2019-02-27T22:22:53.690Z,68.10
2019-02-27T22:25:23.208Z,68.50
2019-02-27T22:27:52.670Z,68.60
2019-02-27T22:30:21.900Z,69.10
2019-02-27T22:32:51.149Z,70.00
2019-02-27T22:35:20.311Z,69.50
2019-02-27T22:37:52.459Z,69.70
2019-02-27T22:40:20.539Z,69.50
2019-02-27T22:42:49.828Z,69.80
2019-02-27T22:45:19.192Z,70.10
2019-02-27T22:47:48.927Z,70.30
2019-02-27T22:50:18.289Z,70.20
2019-02-27T22:52:47.624Z,70.60
2019-02-27T22:55:16.916Z,71.20
2019-02-27T22:57:46.234Z,71.50
2019-02-27T23:00:51.224Z,71.50
2019-02-27T23:03:23.732Z,71.70
2019-02-27T23:05:52.672Z,71.90
2019-02-27T23:08:22.868Z,72.60
2019-02-27T23:10:52.889Z,72.90
2019-02-27T23:13:22.071Z,73.10
2019-02-27T23:15:51.923Z,73.20
2019-02-27T23:18:21.107Z,73.30
2019-02-27T23:20:52.602Z,73.80
2019-02-27T23:23:21.296Z,73.50
2019-02-27T23:25:50.450Z,74.30
2019-02-27T23:28:19.710Z,73.80
2019-02-27T23:30:48.931Z,75.30
2019-02-27T23:33:18.175Z,74.80
2019-02-27T23:35:50.112Z,75.10
2019-02-27T23:38:18.244Z,75.00
2019-02-27T23:40:49.166Z,75.30
2019-02-27T23:43:19.756Z,75.30
2019-02-27T23:45:49.095Z,75.50
2019-02-27T23:48:18.343Z,75.90
2019-02-27T23:50:47.572Z,76.30
2019-02-27T23:53:16.757Z,76.90
2019-02-27T23:55:46.074Z,76.60
2019-02-27T23:58:15.400Z,77.20
